createdAt,value
2023-03-22T00:15:23.329Z,9.02
2023-03-22T00:18:08.992Z,9.38
2023-03-22T00:20:42.195Z,9.75
2023-03-22T00:23:18.748Z,9.60
2023-03-22T00:25:53.066Z,9.20
2023-03-22T00:28:26.770Z,8.68
2023-03-22T00:38:32.516Z,9.50
2023-03-22T01:01:40.526Z,9.98
2023-03-22T01:22:09.087Z,10.37
2023-03-22T01:25:04.054Z,10.52
2023-03-22T01:30:31.510Z,11.15
2023-03-22T01:33:41.509Z,10.75
2023-03-22T01:36:39.128Z,11.43
2023-03-22T01:47:55.887Z,11.63
2023-03-22T02:08:07.472Z,11.30
2023-03-22T02:11:13.023Z,11.70
2023-03-22T02:14:40.910Z,12.32
2023-03-22T02:21:20.339Z,11.25
2023-03-22T02:32:50.454Z,11.32
2023-03-22T02:36:48.924Z,12.00
2023-03-22T02:51:15.093Z,11.88
2023-03-22T02:54:45.092Z,12.00
2023-03-22T02:58:03.331Z,12.00
2023-03-22T03:01:13.791Z,12.32
2023-03-22T03:19:33.648Z,11.55
2023-03-22T03:23:24.657Z,11.05
2023-03-22T03:27:01.658Z,11.27
2023-03-22T03:31:28.401Z,11.95
2023-03-22T03:34:43.496Z,11.02
2023-03-22T03:37:57.478Z,11.70
2023-03-22T03:44:20.994Z,11.80
2023-03-22T03:46:48.969Z,10.88
2023-03-22T03:49:17.164Z,11.27
2023-03-22T03:51:52.339Z,10.75
2023-03-22T03:54:20.334Z,11.02
2023-03-22T03:56:48.006Z,11.43
2023-03-22T03:59:16.741Z,11.38
2023-03-22T04:01:50.341Z,10.77
2023-03-22T04:04:27.545Z,10.57
2023-03-22T04:06:59.684Z,10.07
2023-03-22T04:09:32.038Z,10.85
2023-03-22T04:12:06.401Z,9.93
2023-03-22T04:14:33.063Z,10.75
2023-03-22T04:17:06.253Z,10.20
2023-03-22T04:19:33.131Z,10.90
2023-03-22T04:22:00.274Z,10.48
2023-03-22T04:24:27.182Z,10.73
2023-03-22T04:26:53.935Z,10.05
2023-03-22T04:29:39.122Z,10.00
2023-03-22T04:32:31.367Z,10.23
2023-03-22T04:34:58.896Z,10.18
2023-03-22T04:37:27.081Z,9.65
2023-03-22T04:40:20.788Z,9.38
2023-03-22T04:43:04.122Z,10.30
2023-03-22T04:45:58.297Z,9.85
2023-03-22T04:48:31.282Z,10.30
2023-03-22T04:51:04.076Z,9.73
2023-03-22T04:53:40.143Z,9.88
2023-03-22T04:56:13.567Z,9.43
2023-03-22T04:58:43.066Z,9.85
2023-03-22T05:01:11.367Z,9.95
2023-03-22T05:03:42.933Z,9.02
2023-03-22T05:06:10.336Z,10.32
2023-03-22T05:08:46.450Z,9.60
2023-03-22T05:11:19.396Z,9.10
2023-03-22T05:13:57.835Z,9.23
2023-03-22T05:16:25.915Z,9.25
2023-03-22T05:18:56.555Z,9.23
2023-03-22T05:21:28.393Z,9.40
2023-03-22T05:23:59.231Z,8.95
2023-03-22T05:26:26.880Z,9.07
2023-03-22T05:28:55.819Z,9.30
2023-03-22T05:31:41.789Z,9.18
2023-03-22T05:34:09.706Z,10.30
2023-03-22T05:36:38.187Z,9.45
2023-03-22T05:39:37.177Z,9.70
2023-03-22T05:42:03.959Z,10.07
2023-03-22T05:44:32.210Z,9.75
2023-03-22T05:47:07.493Z,9.63
2023-03-22T05:49:37.451Z,9.93
2023-03-22T05:52:06.049Z,9.50
2023-03-22T05:55:13.642Z,10.00
2023-03-22T05:57:41.379Z,9.65
2023-03-22T06:00:13.215Z,9.50
2023-03-22T06:02:47.970Z,9.35
2023-03-22T06:05:17.054Z,9.50
2023-03-22T06:07:45.092Z,9.30
2023-03-22T06:10:17.025Z,9.70
2023-03-22T06:12:44.389Z,8.35
2023-03-22T06:18:07.906Z,9.02
2023-03-22T06:20:40.677Z,8.90
2023-03-22T06:23:13.695Z,8.48
2023-03-22T06:25:41.714Z,8.30
2023-03-22T06:28:09.144Z,7.78
2023-03-22T06:30:38.500Z,8.25
2023-03-22T06:33:25.623Z,8.35
2023-03-22T06:35:59.666Z,7.88
2023-03-22T06:38:32.935Z,8.75
2023-03-22T06:40:59.811Z,7.97
2023-03-22T06:43:26.556Z,8.07
2023-03-22T06:46:01.211Z,8.48
2023-03-22T06:48:39.181Z,8.45
2023-03-22T06:51:10.025Z,8.13
2023-03-22T06:53:37.743Z,8.43
2023-03-22T06:56:04.904Z,8.20
2023-03-22T06:58:41.076Z,7.57
2023-03-22T07:01:07.755Z,7.72
2023-03-22T07:03:35.855Z,7.93
2023-03-22T07:06:15.367Z,8.15
2023-03-22T07:08:45.865Z,7.82
2023-03-22T07:11:15.914Z,7.80
2023-03-22T07:13:46.685Z,7.70
2023-03-22T07:16:19.914Z,7.82
2023-03-22T07:18:57.168Z,8.30
2023-03-22T07:21:23.987Z,8.23
2023-03-22T07:23:55.721Z,8.05
2023-03-22T07:26:26.392Z,8.38
2023-03-22T07:28:55.680Z,8.23
2023-03-22T07:31:27.297Z,8.23
2023-03-22T07:34:00.792Z,8.10
2023-03-22T07:36:30.789Z,7.85
2023-03-22T07:38:57.660Z,7.93
2023-03-22T07:41:30.232Z,7.35
2023-03-22T07:44:18.250Z,7.95
2023-03-22T07:47:08.524Z,7.85
2023-03-22T07:49:44.480Z,7.82
2023-03-22T07:52:17.727Z,7.90
2023-03-22T07:54:44.507Z,8.48
2023-03-22T07:57:11.184Z,7.45
2023-03-22T07:59:46.765Z,8.45
2023-03-22T08:02:16.490Z,7.55
2023-03-22T08:04:52.675Z,8.93
2023-03-22T08:07:30.081Z,8.23
2023-03-22T08:09:58.370Z,8.52
2023-03-22T08:12:28.069Z,8.90
2023-03-22T08:15:04.153Z,9.98
2023-03-22T08:17:32.359Z,9.27
2023-03-22T08:19:59.059Z,10.00
2023-03-22T08:22:44.134Z,9.60
2023-03-22T08:25:30.308Z,10.23
2023-03-22T08:28:05.684Z,10.52
2023-03-22T08:30:32.861Z,9.40
2023-03-22T08:32:59.539Z,10.48
2023-03-22T08:35:26.744Z,11.15
2023-03-22T08:37:59.584Z,10.30
2023-03-22T08:40:55.177Z,10.93
2023-03-22T08:43:34.698Z,10.95
2023-03-22T08:46:25.707Z,11.95
2023-03-22T08:49:08.264Z,11.25
2023-03-22T08:51:55.028Z,11.25
2023-03-22T08:54:57.501Z,10.52
2023-03-22T08:57:46.756Z,10.25
2023-03-22T09:00:48.961Z,9.52
2023-03-22T09:03:43.385Z,10.00
2023-03-22T09:06:22.477Z,10.23
2023-03-22T09:09:07.975Z,9.25
2023-03-22T09:11:42.000Z,9.43
2023-03-22T09:14:16.920Z,8.85
2023-03-22T09:17:09.808Z,9.55
2023-03-22T09:19:55.684Z,9.35
2023-03-22T09:22:35.965Z,9.20
2023-03-22T09:25:13.260Z,8.48
2023-03-22T09:27:46.878Z,8.70
2023-03-22T09:30:25.089Z,8.65
2023-03-22T09:32:59.613Z,8.40
2023-03-22T09:35:37.751Z,7.75
2023-03-22T09:38:13.383Z,7.70
2023-03-22T09:41:36.869Z,7.15
2023-03-22T09:44:43.082Z,6.80
2023-03-22T09:47:21.761Z,6.53
2023-03-22T09:49:56.594Z,6.72
2023-03-22T09:52:26.281Z,6.40
2023-03-22T09:54:59.598Z,6.95
2023-03-22T09:57:42.462Z,6.32
2023-03-22T10:00:35.138Z,6.18
2023-03-22T10:06:41.977Z,5.50
2023-03-22T10:09:43.244Z,5.13
2023-03-22T10:12:53.954Z,5.38
2023-03-22T10:16:11.105Z,5.75
2023-03-22T10:18:52.155Z,4.77
2023-03-22T10:21:26.142Z,4.50
2023-03-22T10:24:19.960Z,4.57
2023-03-22T10:29:39.459Z,3.83
2023-03-22T10:32:34.493Z,4.40
2023-03-22T10:35:04.464Z,3.97
2023-03-22T10:37:39.051Z,4.03
2023-03-22T10:40:25.015Z,3.58
2023-03-22T10:43:05.767Z,3.63
2023-03-22T10:45:37.250Z,3.63
2023-03-22T10:48:19.259Z,4.05
2023-03-22T10:51:01.693Z,3.67
2023-03-22T10:53:37.696Z,3.63
2023-03-22T10:56:16.970Z,3.38
2023-03-22T10:59:00.969Z,4.05
2023-03-22T11:01:35.114Z,3.60
2023-03-22T11:04:22.647Z,3.25
2023-03-22T11:07:07.202Z,3.30
2023-03-22T11:09:50.518Z,2.92
2023-03-22T11:12:30.512Z,3.15
2023-03-22T11:15:11.469Z,3.30
2023-03-22T11:17:44.408Z,2.72
2023-03-22T11:20:26.396Z,2.75
2023-03-22T11:23:24.631Z,3.35
2023-03-22T11:26:08.176Z,2.75
2023-03-22T11:28:54.097Z,2.97
2023-03-22T11:31:23.020Z,2.90
2023-03-22T11:34:23.627Z,2.63
2023-03-22T11:37:18.122Z,3.00
2023-03-22T11:40:20.327Z,2.67
2023-03-22T11:43:02.516Z,3.05
2023-03-22T11:45:45.799Z,2.83
2023-03-22T11:48:26.828Z,2.60
2023-03-22T11:51:19.001Z,3.13
2023-03-22T11:54:06.328Z,3.40
2023-03-22T11:56:37.325Z,3.10
2023-03-22T11:59:36.844Z,3.42
2023-03-22T12:02:18.543Z,2.90
2023-03-22T12:04:53.507Z,2.95
2023-03-22T12:07:40.694Z,3.10
2023-03-22T12:10:23.399Z,2.80
2023-03-22T12:13:04.643Z,2.97
2023-03-22T12:16:22.269Z,3.28
2023-03-22T12:19:16.433Z,3.00
2023-03-22T12:22:05.138Z,2.80
2023-03-22T12:24:41.775Z,3.05
2023-03-22T12:27:41.546Z,2.97
2023-03-22T12:30:43.616Z,3.88
2023-03-22T12:36:12.395Z,3.88
2023-03-22T12:39:13.952Z,3.67
2023-03-22T12:42:05.383Z,4.40
2023-03-22T12:45:04.072Z,4.20
2023-03-22T12:47:46.762Z,3.63
2023-03-22T12:50:40.646Z,3.45
2023-03-22T12:53:20.879Z,3.65
2023-03-22T12:55:51.886Z,4.10
2023-03-22T12:58:27.100Z,4.18
2023-03-22T13:01:23.998Z,4.15
2023-03-22T13:04:01.100Z,4.25
2023-03-22T13:06:48.638Z,4.20
2023-03-22T13:09:45.373Z,4.45
2023-03-22T13:12:18.392Z,5.13
2023-03-22T13:17:42.643Z,5.57
2023-03-22T13:20:12.430Z,5.32
2023-03-22T13:22:49.775Z,5.15
2023-03-22T13:25:20.165Z,5.28
2023-03-22T13:28:06.769Z,6.03
2023-03-22T13:31:05.654Z,6.60
2023-03-22T13:33:41.013Z,6.22
2023-03-22T13:36:34.659Z,7.07
2023-03-22T13:39:11.936Z,6.78
2023-03-22T13:41:55.368Z,6.07
2023-03-22T13:45:01.311Z,7.00
2023-03-22T13:47:46.029Z,5.90
2023-03-22T13:50:40.131Z,6.40
2023-03-22T13:53:44.740Z,6.05
2023-03-22T13:57:00.561Z,6.28
2023-03-22T14:00:33.257Z,6.20
2023-03-22T14:03:32.555Z,6.03
2023-03-22T14:09:47.355Z,7.30
2023-03-22T14:12:47.969Z,6.82
2023-03-22T14:15:31.820Z,6.85
2023-03-22T14:18:31.737Z,7.55
2023-03-22T14:21:19.575Z,7.18
